sensor_id;sensor_type;location;lat;lon;timestamp;pressure;altitude;pressure_sealevel;temperature;humidity
59391;BME280;53405;57.012;40.984;2023-03-15T00:01:52;99622.50;;;3.59;65.45
59391;BME280;53405;57.012;40.984;2023-03-15T00:04:20;99582.59;;;3.11;65.38
59391;BME280;53405;57.012;40.984;2023-03-15T00:06:47;99613.19;;;3.47;66.00
59391;BME280;53405;57.012;40.984;2023-03-15T00:09:15;99611.03;;;3.52;64.53
59391;BME280;53405;57.012;40.984;2023-03-15T00:11:42;99606.38;;;3.46;64.79
59391;BME280;53405;57.012;40.984;2023-03-15T00:14:10;99595.44;;;3.32;65.56
59391;BME280;53405;57.012;40.984;2023-03-15T00:16:37;99594.56;;;3.51;64.82
59391;BME280;53405;57.012;40.984;2023-03-15T00:19:04;99592.47;;;3.17;64.96
59391;BME280;53405;57.012;40.984;2023-03-15T00:21:32;99614.16;;;3.55;64.74
59391;BME280;53405;57.012;40.984;2023-03-15T00:24:00;99602.38;;;3.51;64.86
59391;BME280;53405;57.012;40.984;2023-03-15T00:26:28;99596.63;;;3.48;65.53
59391;BME280;53405;57.012;40.984;2023-03-15T00:28:55;99603.59;;;3.57;64.72
59391;BME280;53405;57.012;40.984;2023-03-15T00:31:23;99594.22;;;3.64;64.68
59391;BME280;53405;57.012;40.984;2023-03-15T00:33:51;99589.72;;;3.66;64.00
59391;BME280;53405;57.012;40.984;2023-03-15T00:36:22;99608.13;;;3.55;64.69
59391;BME280;53405;57.012;40.984;2023-03-15T00:38:52;99608.81;;;3.57;65.04
59391;BME280;53405;57.012;40.984;2023-03-15T00:41:20;99611.41;;;3.57;65.10
59391;BME280;53405;57.012;40.984;2023-03-15T00:43:48;99601.66;;;3.59;65.04
59391;BME280;53405;57.012;40.984;2023-03-15T00:46:16;99612.88;;;3.69;64.47
59391;BME280;53405;57.012;40.984;2023-03-15T00:48:47;99601.94;;;3.56;64.42
59391;BME280;53405;57.012;40.984;2023-03-15T00:51:17;99612.22;;;3.57;64.38
59391;BME280;53405;57.012;40.984;2023-03-15T00:53:45;99586.06;;;3.49;64.14
59391;BME280;53405;57.012;40.984;2023-03-15T00:56:16;99608.28;;;3.53;65.19
59391;BME280;53405;57.012;40.984;2023-03-15T00:58:43;99604.53;;;3.56;64.43
59391;BME280;53405;57.012;40.984;2023-03-15T01:01:19;99592.78;;;3.52;64.99
59391;BME280;53405;57.012;40.984;2023-03-15T01:03:48;99616.94;;;3.44;65.45
59391;BME280;53405;57.012;40.984;2023-03-15T01:06:21;99596.81;;;3.36;65.71
59391;BME280;53405;57.012;40.984;2023-03-15T01:08:49;99597.84;;;3.53;64.35
59391;BME280;53405;57.012;40.984;2023-03-15T01:11:22;99587.59;;;3.42;65.84
59391;BME280;53405;57.012;40.984;2023-03-15T01:13:55;99593.78;;;3.41;65.27
59391;BME280;53405;57.012;40.984;2023-03-15T01:16:23;99603.88;;;3.54;65.21
59391;BME280;53405;57.012;40.984;2023-03-15T01:18:53;99603.63;;;3.47;64.66
59391;BME280;53405;57.012;40.984;2023-03-15T01:21:21;99585.00;;;3.42;64.35
59391;BME280;53405;57.012;40.984;2023-03-15T01:23:49;99599.41;;;3.36;65.36
59391;BME280;53405;57.012;40.984;2023-03-15T01:26:20;99606.78;;;3.41;65.27
59391;BME280;53405;57.012;40.984;2023-03-15T01:28:48;99569.03;;;3.17;65.24
59391;BME280;53405;57.012;40.984;2023-03-15T01:31:21;99604.50;;;3.28;65.70
59391;BME280;53405;57.012;40.984;2023-03-15T01:33:49;99602.44;;;3.32;65.56
59391;BME280;53405;57.012;40.984;2023-03-15T01:36:17;99604.59;;;3.46;65.06
59391;BME280;53405;57.012;40.984;2023-03-15T01:38:45;99608.28;;;3.43;65.39
59391;BME280;53405;57.012;40.984;2023-03-15T01:41:15;99577.03;;;3.43;65.13
59391;BME280;53405;57.012;40.984;2023-03-15T01:43:43;99609.84;;;3.27;65.56
59391;BME280;53405;57.012;40.984;2023-03-15T01:46:24;99602.72;;;3.29;65.55
59391;BME280;53405;57.012;40.984;2023-03-15T01:49:07;99599.53;;;3.35;66.08
59391;BME280;53405;57.012;40.984;2023-03-15T01:54:51;99577.53;;;3.10;66.01
59391;BME280;53405;57.012;40.984;2023-03-15T01:57:31;99619.56;;;3.24;66.58
59391;BME280;53405;57.012;40.984;2023-03-15T02:00:15;99617.22;;;3.21;65.85
59391;BME280;53405;57.012;40.984;2023-03-15T02:03:05;99609.97;;;3.35;65.74
59391;BME280;53405;57.012;40.984;2023-03-15T02:05:40;99610.63;;;3.37;65.71
59391;BME280;53405;57.012;40.984;2023-03-15T02:08:27;99600.09;;;3.29;65.69
59391;BME280;53405;57.012;40.984;2023-03-15T02:11:00;99615.44;;;3.32;65.86
59391;BME280;53405;57.012;40.984;2023-03-15T02:13:32;99608.06;;;3.27;65.77
59391;BME280;53405;57.012;40.984;2023-03-15T02:16:06;99571.38;;;3.20;65.41
59391;BME280;53405;57.012;40.984;2023-03-15T02:18:43;99611.56;;;3.36;65.04
59391;BME280;53405;57.012;40.984;2023-03-15T02:23:38;99618.13;;;3.50;65.08
59391;BME280;53405;57.012;40.984;2023-03-15T02:26:27;99629.66;;;3.47;66.22
59391;BME280;53405;57.012;40.984;2023-03-15T02:28:57;99622.16;;;3.34;65.16
59391;BME280;53405;57.012;40.984;2023-03-15T02:31:24;99613.75;;;3.40;65.28
59391;BME280;53405;57.012;40.984;2023-03-15T02:33:54;99625.66;;;3.53;64.92
59391;BME280;53405;57.012;40.984;2023-03-15T02:38:53;99613.25;;;3.27;65.77
59391;BME280;53405;57.012;40.984;2023-03-15T02:41:36;99624.78;;;3.15;66.60
59391;BME280;53405;57.012;40.984;2023-03-15T02:44:32;99626.00;;;3.20;66.03
59391;BME280;53405;57.012;40.984;2023-03-15T02:47:04;99606.84;;;3.12;67.08
59391;BME280;53405;57.012;40.984;2023-03-15T02:49:39;99626.00;;;3.30;66.39
59391;BME280;53405;57.012;40.984;2023-03-15T02:52:09;99606.97;;;3.30;65.85
59391;BME280;53405;57.012;40.984;2023-03-15T02:54:38;99606.25;;;3.28;65.19
59391;BME280;53405;57.012;40.984;2023-03-15T02:57:11;99626.44;;;3.16;65.83
59391;BME280;53405;57.012;40.984;2023-03-15T02:59:38;99597.66;;;3.17;66.28
59391;BME280;53405;57.012;40.984;2023-03-15T03:02:08;99623.44;;;3.11;66.27
59391;BME280;53405;57.012;40.984;2023-03-15T03:04:38;99612.88;;;3.22;66.59
59391;BME280;53405;57.012;40.984;2023-03-15T03:07:05;99625.59;;;3.15;66.14
59391;BME280;53405;57.012;40.984;2023-03-15T03:09:42;99603.53;;;3.19;67.19
59391;BME280;53405;57.012;40.984;2023-03-15T03:12:10;99610.38;;;3.30;66.45
59391;BME280;53405;57.012;40.984;2023-03-15T03:14:38;99617.09;;;3.33;65.89
59391;BME280;53405;57.012;40.984;2023-03-15T03:17:10;99608.88;;;3.18;67.24
59391;BME280;53405;57.012;40.984;2023-03-15T03:19:38;99601.72;;;3.39;65.82
59391;BME280;53405;57.012;40.984;2023-03-15T03:22:06;99616.28;;;3.22;67.79
59391;BME280;53405;57.012;40.984;2023-03-15T03:24:33;99596.81;;;3.36;65.89
59391;BME280;53405;57.012;40.984;2023-03-15T03:27:06;99603.66;;;3.28;65.90
59391;BME280;53405;57.012;40.984;2023-03-15T03:29:36;99591.34;;;3.20;66.04
59391;BME280;53405;57.012;40.984;2023-03-15T03:32:03;99593.81;;;3.21;66.71
59391;BME280;53405;57.012;40.984;2023-03-15T03:34:31;99580.16;;;3.10;66.90
59391;BME280;53405;57.012;40.984;2023-03-15T03:36:59;99609.97;;;3.35;66.38
59391;BME280;53405;57.012;40.984;2023-03-15T03:39:45;99597.91;;;3.24;67.72
59391;BME280;53405;57.012;40.984;2023-03-15T03:42:13;99612.44;;;3.27;66.63
59391;BME280;53405;57.012;40.984;2023-03-15T03:44:40;99522.00;;;2.52;67.32
59391;BME280;53405;57.012;40.984;2023-03-15T03:47:08;99617.50;;;3.28;65.97
59391;BME280;53405;57.012;40.984;2023-03-15T03:49:35;99612.19;;;3.10;66.39
59391;BME280;53405;57.012;40.984;2023-03-15T03:52:02;99622.31;;;3.13;67.47
59391;BME280;53405;57.012;40.984;2023-03-15T03:54:30;99620.66;;;3.22;66.61
59391;BME280;53405;57.012;40.984;2023-03-15T03:56:58;99624.38;;;3.10;68.45
59391;BME280;53405;57.012;40.984;2023-03-15T03:59:30;99622.44;;;3.12;67.69
59391;BME280;53405;57.012;40.984;2023-03-15T04:02:03;99619.25;;;3.37;66.63
59391;BME280;53405;57.012;40.984;2023-03-15T04:04:30;99622.31;;;3.33;66.50
59391;BME280;53405;57.012;40.984;2023-03-15T04:06:58;99627.91;;;3.28;66.67
59391;BME280;53405;57.012;40.984;2023-03-15T04:09:32;99543.75;;;2.80;66.64
59391;BME280;53405;57.012;40.984;2023-03-15T04:12:04;99622.56;;;3.39;66.80
59391;BME280;53405;57.012;40.984;2023-03-15T04:14:34;99634.50;;;3.22;66.87
59391;BME280;53405;57.012;40.984;2023-03-15T04:17:04;99608.50;;;3.13;67.02
59391;BME280;53405;57.012;40.984;2023-03-15T04:19:31;99597.81;;;3.06;67.01
59391;BME280;53405;57.012;40.984;2023-03-15T04:22:00;99621.84;;;3.47;65.99
59391;BME280;53405;57.012;40.984;2023-03-15T04:24:50;99624.19;;;3.31;66.19
59391;BME280;53405;57.012;40.984;2023-03-15T04:27:35;99627.03;;;3.57;65.72
59391;BME280;53405;57.012;40.984;2023-03-15T04:30:15;99617.88;;;3.43;66.70
59391;BME280;53405;57.012;40.984;2023-03-15T04:32:55;99631.16;;;3.40;66.24
59391;BME280;53405;57.012;40.984;2023-03-15T04:35:45;99630.63;;;3.46;66.31
59391;BME280;53405;57.012;40.984;2023-03-15T04:38:31;99635.38;;;3.60;66.25
59391;BME280;53405;57.012;40.984;2023-03-15T04:41:20;99634.00;;;3.66;66.14
59391;BME280;53405;57.012;40.984;2023-03-15T04:44:05;99654.13;;;3.74;65.60
59391;BME280;53405;57.012;40.984;2023-03-15T04:46:53;99645.00;;;3.88;64.70
59391;BME280;53405;57.012;40.984;2023-03-15T04:49:35;99647.09;;;3.84;64.56
59391;BME280;53405;57.012;40.984;2023-03-15T04:52:11;99661.66;;;3.67;65.24
59391;BME280;53405;57.012;40.984;2023-03-15T04:54:48;99663.28;;;3.78;65.46
59391;BME280;53405;57.012;40.984;2023-03-15T04:57:44;99654.03;;;3.93;64.45
59391;BME280;53405;57.012;40.984;2023-03-15T05:00:47;99672.59;;;3.80;64.55
59391;BME280;53405;57.012;40.984;2023-03-15T05:03:45;99653.56;;;3.80;64.01
59391;BME280;53405;57.012;40.984;2023-03-15T05:06:15;99670.53;;;3.84;64.30
59391;BME280;53405;57.012;40.984;2023-03-15T05:09:03;99679.69;;;3.98;64.04
59391;BME280;53405;57.012;40.984;2023-03-15T05:12:03;99681.63;;;3.96;64.54
59391;BME280;53405;57.012;40.984;2023-03-15T05:14:50;99657.69;;;3.73;63.47
59391;BME280;53405;57.012;40.984;2023-03-15T05:17:25;99689.31;;;3.78;64.07
59391;BME280;53405;57.012;40.984;2023-03-15T05:20:12;99696.72;;;3.83;65.82
59391;BME280;53405;57.012;40.984;2023-03-15T05:23:00;99688.06;;;3.92;65.10
59391;BME280;53405;57.012;40.984;2023-03-15T05:25:53;99695.06;;;3.91;64.43
59391;BME280;53405;57.012;40.984;2023-03-15T05:28:39;99703.94;;;3.98;64.87
59391;BME280;53405;57.012;40.984;2023-03-15T05:31:06;99697.91;;;3.98;64.64
59391;BME280;53405;57.012;40.984;2023-03-15T05:33:52;99700.19;;;4.11;64.28
59391;BME280;53405;57.012;40.984;2023-03-15T05:36:37;99686.25;;;4.02;64.28
59391;BME280;53405;57.012;40.984;2023-03-15T05:39:23;99591.81;;;3.53;63.99
59391;BME280;53405;57.012;40.984;2023-03-15T05:42:06;99707.75;;;4.42;63.11
59391;BME280;53405;57.012;40.984;2023-03-15T05:44:52;99664.03;;;3.98;63.39
59391;BME280;53405;57.012;40.984;2023-03-15T05:47:41;99705.97;;;4.05;63.55
59391;BME280;53405;57.012;40.984;2023-03-15T05:50:15;99716.69;;;4.02;63.75
59391;BME280;53405;57.012;40.984;2023-03-15T05:53:15;99715.88;;;4.01;63.83
59391;BME280;53405;57.012;40.984;2023-03-15T05:55:54;99699.66;;;4.07;64.79
59391;BME280;53405;57.012;40.984;2023-03-15T05:58:52;99719.16;;;4.41;63.25
59391;BME280;53405;57.012;40.984;2023-03-15T06:01:19;99719.09;;;4.50;64.04
59391;BME280;53405;57.012;40.984;2023-03-15T06:04:06;99686.56;;;4.55;62.62
59391;BME280;53405;57.012;40.984;2023-03-15T06:06:35;99709.03;;;4.56;62.49
59391;BME280;53405;57.012;40.984;2023-03-15T06:09:05;99705.63;;;4.55;62.50
59391;BME280;53405;57.012;40.984;2023-03-15T06:11:33;99699.50;;;4.46;62.46
59391;BME280;53405;57.012;40.984;2023-03-15T06:14:01;99717.50;;;4.40;62.11
59391;BME280;53405;57.012;40.984;2023-03-15T06:16:50;99714.06;;;4.67;62.44
59391;BME280;53405;57.012;40.984;2023-03-15T06:19:18;99713.44;;;4.55;62.79
59391;BME280;53405;57.012;40.984;2023-03-15T06:21:45;99728.84;;;4.76;62.28
59391;BME280;53405;57.012;40.984;2023-03-15T06:24:36;99719.31;;;4.85;62.97
59391;BME280;53405;57.012;40.984;2023-03-15T06:27:03;99730.56;;;4.85;62.29
59391;BME280;53405;57.012;40.984;2023-03-15T06:29:32;99729.00;;;5.11;61.66
59391;BME280;53405;57.012;40.984;2023-03-15T06:32:02;99700.59;;;4.72;61.27
59391;BME280;53405;57.012;40.984;2023-03-15T06:34:30;99735.56;;;4.79;61.03
59391;BME280;53405;57.012;40.984;2023-03-15T06:36:57;99689.97;;;4.55;61.84
59391;BME280;53405;57.012;40.984;2023-03-15T06:39:25;99736.69;;;4.76;60.97
59391;BME280;53405;57.012;40.984;2023-03-15T06:41:52;99730.84;;;4.82;61.08
59391;BME280;53405;57.012;40.984;2023-03-15T06:44:21;99742.88;;;4.93;61.55
59391;BME280;53405;57.012;40.984;2023-03-15T06:46:53;99733.66;;;4.71;60.38
59391;BME280;53405;57.012;40.984;2023-03-15T06:49:21;99752.72;;;4.99;60.30
59391;BME280;53405;57.012;40.984;2023-03-15T06:51:49;99755.25;;;4.91;60.98
59391;BME280;53405;57.012;40.984;2023-03-15T06:54:16;99762.00;;;4.84;60.21
59391;BME280;53405;57.012;40.984;2023-03-15T06:56:43;99761.06;;;4.85;61.13
59391;BME280;53405;57.012;40.984;2023-03-15T06:59:11;99750.19;;;4.89;62.53
59391;BME280;53405;57.012;40.984;2023-03-15T07:01:38;99757.88;;;5.09;60.75
59391;BME280;53405;57.012;40.984;2023-03-15T07:04:05;99760.97;;;5.22;60.65
59391;BME280;53405;57.012;40.984;2023-03-15T07:06:34;99765.41;;;4.94;60.03
59391;BME280;53405;57.012;40.984;2023-03-15T07:09:03;99748.94;;;4.94;59.53
59391;BME280;53405;57.012;40.984;2023-03-15T07:11:31;99753.63;;;5.08;60.88
59391;BME280;53405;57.012;40.984;2023-03-15T07:13:58;99764.97;;;4.99;60.52
59391;BME280;53405;57.012;40.984;2023-03-15T07:16:25;99752.31;;;5.22;59.52
59391;BME280;53405;57.012;40.984;2023-03-15T07:18:52;99760.88;;;5.32;58.79
59391;BME280;53405;57.012;40.984;2023-03-15T07:21:22;99741.41;;;5.09;59.83
59391;BME280;53405;57.012;40.984;2023-03-15T07:23:51;99757.44;;;5.32;59.30
59391;BME280;53405;57.012;40.984;2023-03-15T07:26:18;99760.03;;;5.14;59.52
59391;BME280;53405;57.012;40.984;2023-03-15T07:28:45;99738.97;;;5.25;60.07
59391;BME280;53405;57.012;40.984;2023-03-15T07:31:13;99773.94;;;5.32;58.72
59391;BME280;53405;57.012;40.984;2023-03-15T07:33:40;99716.19;;;4.99;59.02
59391;BME280;53405;57.012;40.984;2023-03-15T07:36:08;99765.81;;;5.35;58.80
59391;BME280;53405;57.012;40.984;2023-03-15T07:38:36;99731.72;;;5.19;58.96
59391;BME280;53405;57.012;40.984;2023-03-15T07:41:05;99749.25;;;5.45;58.22
59391;BME280;53405;57.012;40.984;2023-03-15T07:43:33;99761.91;;;5.57;57.42
59391;BME280;53405;57.012;40.984;2023-03-15T07:46:13;99761.41;;;5.80;57.07
59391;BME280;53405;57.012;40.984;2023-03-15T07:48:40;99730.06;;;5.54;58.09
59391;BME280;53405;57.012;40.984;2023-03-15T07:51:07;99780.88;;;6.04;56.85
59391;BME280;53405;57.012;40.984;2023-03-15T07:53:35;99739.66;;;5.71;56.36
59391;BME280;53405;57.012;40.984;2023-03-15T07:56:02;99771.78;;;5.90;57.36
59391;BME280;53405;57.012;40.984;2023-03-15T07:58:30;99695.59;;;5.32;58.15
59391;BME280;53405;57.012;40.984;2023-03-15T08:00:57;99755.97;;;5.73;56.34
59391;BME280;53405;57.012;40.984;2023-03-15T08:03:25;99759.38;;;5.92;55.69
59391;BME280;53405;57.012;40.984;2023-03-15T08:05:55;99765.50;;;6.01;56.05
59391;BME280;53405;57.012;40.984;2023-03-15T08:08:22;99754.47;;;5.89;55.38
59391;BME280;53405;57.012;40.984;2023-03-15T08:10:49;99773.34;;;6.01;55.87
59391;BME280;53405;57.012;40.984;2023-03-15T08:13:16;99768.50;;;5.88;55.73
59391;BME280;53405;57.012;40.984;2023-03-15T08:15:45;99774.09;;;5.93;56.08
59391;BME280;53405;57.012;40.984;2023-03-15T08:18:13;99781.72;;;6.04;57.40
59391;BME280;53405;57.012;40.984;2023-03-15T08:20:40;99788.50;;;6.15;56.61
59391;BME280;53405;57.012;40.984;2023-03-15T08:23:08;99781.97;;;6.19;57.11
59391;BME280;53405;57.012;40.984;2023-03-15T08:25:35;99789.31;;;6.15;56.02
59391;BME280;53405;57.012;40.984;2023-03-15T08:28:06;99788.88;;;6.28;55.14
59391;BME280;53405;57.012;40.984;2023-03-15T08:30:34;99787.53;;;6.24;55.51
59391;BME280;53405;57.012;40.984;2023-03-15T08:33:01;99772.75;;;6.41;54.59
59391;BME280;53405;57.012;40.984;2023-03-15T08:35:29;99790.88;;;6.35;55.57
59391;BME280;53405;57.012;40.984;2023-03-15T08:38:00;99768.00;;;6.37;54.22
59391;BME280;53405;57.012;40.984;2023-03-15T08:40:29;99788.94;;;6.37;54.95
59391;BME280;53405;57.012;40.984;2023-03-15T08:42:56;99803.22;;;6.50;54.80
59391;BME280;53405;57.012;40.984;2023-03-15T08:45:24;99775.63;;;6.56;54.88
59391;BME280;53405;57.012;40.984;2023-03-15T08:47:56;99805.19;;;6.91;53.73
59391;BME280;53405;57.012;40.984;2023-03-15T08:50:25;99771.16;;;6.91;53.42
59391;BME280;53405;57.012;40.984;2023-03-15T08:52:53;99821.53;;;7.44;52.22
59391;BME280;53405;57.012;40.984;2023-03-15T08:55:20;99821.34;;;7.46;51.95
59391;BME280;53405;57.012;40.984;2023-03-15T08:57:47;99830.16;;;7.20;53.59
59391;BME280;53405;57.012;40.984;2023-03-15T09:00:15;99832.22;;;7.00;53.72
59391;BME280;53405;57.012;40.984;2023-03-15T09:02:48;99829.09;;;6.96;52.65
59391;BME280;53405;57.012;40.984;2023-03-15T09:05:16;99835.81;;;6.56;53.42
59391;BME280;53405;57.012;40.984;2023-03-15T09:07:44;99833.84;;;6.58;56.27
59391;BME280;53405;57.012;40.984;2023-03-15T09:10:13;99844.94;;;6.52;54.88
59391;BME280;53405;57.012;40.984;2023-03-15T09:12:42;99845.44;;;6.56;54.60
59391;BME280;53405;57.012;40.984;2023-03-15T09:15:10;99846.50;;;6.71;54.14
59391;BME280;53405;57.012;40.984;2023-03-15T09:17:39;99855.81;;;6.65;55.36
59391;BME280;53405;57.012;40.984;2023-03-15T09:20:08;99854.66;;;6.68;56.93
59391;BME280;53405;57.012;40.984;2023-03-15T09:22:38;99834.63;;;6.50;54.16
59391;BME280;53405;57.012;40.984;2023-03-15T09:25:06;99836.28;;;6.51;54.77
59391;BME280;53405;57.012;40.984;2023-03-15T09:27:34;99830.34;;;6.49;54.16
59391;BME280;53405;57.012;40.984;2023-03-15T09:30:03;99840.50;;;6.53;56.02
59391;BME280;53405;57.012;40.984;2023-03-15T09:32:31;99836.31;;;6.60;55.53
59391;BME280;53405;57.012;40.984;2023-03-15T09:35:04;99835.69;;;6.66;55.65
59391;BME280;53405;57.012;40.984;2023-03-15T09:37:33;99826.16;;;6.57;55.19
59391;BME280;53405;57.012;40.984;2023-03-15T09:40:01;99816.13;;;6.44;54.69
59391;BME280;53405;57.012;40.984;2023-03-15T09:48:27;99841.13;;;6.46;55.01
59391;BME280;53405;57.012;40.984;2023-03-15T09:51:09;99822.66;;;6.48;56.27
59391;BME280;53405;57.012;40.984;2023-03-15T09:53:57;99833.06;;;6.66;55.89
59391;BME280;53405;57.012;40.984;2023-03-15T09:58:59;99851.59;;;6.81;56.96
59391;BME280;53405;57.012;40.984;2023-03-15T10:01:38;99843.53;;;7.00;55.22
59391;BME280;53405;57.012;40.984;2023-03-15T10:04:25;99828.97;;;7.06;53.89
59391;BME280;53405;57.012;40.984;2023-03-15T10:06:58;99837.84;;;7.21;53.77
59391;BME280;53405;57.012;40.984;2023-03-15T10:09:29;99823.94;;;7.13;53.41
59391;BME280;53405;57.012;40.984;2023-03-15T10:12:11;99808.06;;;7.14;53.34
59391;BME280;53405;57.012;40.984;2023-03-15T10:17:28;99834.34;;;7.55;53.07
59391;BME280;53405;57.012;40.984;2023-03-15T10:20:03;99830.91;;;7.80;52.69
59391;BME280;53405;57.012;40.984;2023-03-15T10:22:55;99836.13;;;7.88;52.25
59391;BME280;53405;57.012;40.984;2023-03-15T10:25:28;99846.31;;;7.83;52.74
59391;BME280;53405;57.012;40.984;2023-03-15T10:28:02;99829.13;;;7.88;52.81
59391;BME280;53405;57.012;40.984;2023-03-15T10:30:33;99798.28;;;7.74;52.85
59391;BME280;53405;57.012;40.984;2023-03-15T10:33:05;99822.72;;;7.74;52.99
59391;BME280;53405;57.012;40.984;2023-03-15T10:35:37;99849.09;;;8.14;53.29
59391;BME280;53405;57.012;40.984;2023-03-15T10:38:23;99824.97;;;8.27;53.01
59391;BME280;53405;57.012;40.984;2023-03-15T10:40:57;99822.81;;;8.30;53.32
59391;BME280;53405;57.012;40.984;2023-03-15T10:43:30;99834.94;;;8.48;52.26
59391;BME280;53405;57.012;40.984;2023-03-15T10:46:21;99837.91;;;8.37;52.59
59391;BME280;53405;57.012;40.984;2023-03-15T10:56:27;99834.06;;;8.64;52.09
59391;BME280;53405;57.012;40.984;2023-03-15T10:58:56;99836.59;;;8.41;52.54
59391;BME280;53405;57.012;40.984;2023-03-15T11:01:37;99800.38;;;8.28;53.83
59391;BME280;53405;57.012;40.984;2023-03-15T11:06:58;99782.88;;;8.12;54.62
59391;BME280;53405;57.012;40.984;2023-03-15T11:09:26;99831.38;;;8.32;53.53
59391;BME280;53405;57.012;40.984;2023-03-15T11:12:07;99827.06;;;8.56;52.35
59391;BME280;53405;57.012;40.984;2023-03-15T11:14:41;99835.09;;;8.46;53.60
59391;BME280;53405;57.012;40.984;2023-03-15T11:17:40;99834.78;;;8.41;53.88
59391;BME280;53405;57.012;40.984;2023-03-15T11:20:28;99834.78;;;8.49;53.20
59391;BME280;53405;57.012;40.984;2023-03-15T11:22:57;99831.31;;;8.57;52.90
59391;BME280;53405;57.012;40.984;2023-03-15T11:25:28;99826.03;;;8.65;52.51
59391;BME280;53405;57.012;40.984;2023-03-15T11:28:00;99837.78;;;8.86;51.72
59391;BME280;53405;57.012;40.984;2023-03-15T11:30:40;99831.50;;;8.95;52.41
59391;BME280;53405;57.012;40.984;2023-03-15T11:33:20;99793.13;;;8.94;52.15
59391;BME280;53405;57.012;40.984;2023-03-15T11:35:50;99811.66;;;9.47;51.65
59391;BME280;53405;57.012;40.984;2023-03-15T11:38:41;99805.91;;;9.29;50.54
59391;BME280;53405;57.012;40.984;2023-03-15T11:41:13;99828.78;;;9.66;49.42
59391;BME280;53405;57.012;40.984;2023-03-15T11:46:32;99819.50;;;9.79;49.91
59391;BME280;53405;57.012;40.984;2023-03-15T11:49:08;99822.13;;;9.79;49.31
59391;BME280;53405;57.012;40.984;2023-03-15T11:51:38;99827.78;;;10.28;47.98
59391;BME280;53405;57.012;40.984;2023-03-15T11:54:11;99826.50;;;11.57;46.29
59391;BME280;53405;57.012;40.984;2023-03-15T11:59:14;99840.06;;;11.75;44.07
59391;BME280;53405;57.012;40.984;2023-03-15T12:06:56;99833.19;;;12.24;43.35
59391;BME280;53405;57.012;40.984;2023-03-15T12:14:34;99778.16;;;11.93;43.71
59391;BME280;53405;57.012;40.984;2023-03-15T12:20:16;99823.44;;;11.53;45.87
59391;BME280;53405;57.012;40.984;2023-03-15T12:22:52;99795.75;;;10.70;46.91
59391;BME280;53405;57.012;40.984;2023-03-15T12:25:43;99840.44;;;10.63;46.95
59391;BME280;53405;57.012;40.984;2023-03-15T12:28:41;99838.63;;;10.48;47.13
59391;BME280;53405;57.012;40.984;2023-03-15T12:31:15;99839.63;;;10.47;47.87
59391;BME280;53405;57.012;40.984;2023-03-15T12:33:55;99852.75;;;10.33;48.46
59391;BME280;53405;57.012;40.984;2023-03-15T12:36:33;99822.38;;;10.07;49.37
59391;BME280;53405;57.012;40.984;2023-03-15T12:39:20;99810.19;;;9.68;49.16
59391;BME280;53405;57.012;40.984;2023-03-15T12:41:49;99856.53;;;9.92;48.91
59391;BME280;53405;57.012;40.984;2023-03-15T12:54:36;99875.81;;;8.98;49.10
59391;BME280;53405;57.012;40.984;2023-03-15T12:57:10;99887.78;;;9.01;49.33
59391;BME280;53405;57.012;40.984;2023-03-15T12:59:50;99883.31;;;9.10;51.51
59391;BME280;53405;57.012;40.984;2023-03-15T13:02:27;99882.91;;;8.90;49.08
59391;BME280;53405;57.012;40.984;2023-03-15T13:05:23;99864.56;;;8.73;48.21
59391;BME280;53405;57.012;40.984;2023-03-15T13:07:56;99881.34;;;8.56;49.15
59391;BME280;53405;57.012;40.984;2023-03-15T13:10:31;99888.03;;;8.75;49.89
59391;BME280;53405;57.012;40.984;2023-03-15T13:16:05;99876.31;;;8.94;49.43
59391;BME280;53405;57.012;40.984;2023-03-15T13:29:30;99890.41;;;9.01;49.28
59391;BME280;53405;57.012;40.984;2023-03-15T13:34:34;99886.47;;;8.97;49.16
59391;BME280;53405;57.012;40.984;2023-03-15T13:37:02;99884.34;;;9.00;50.10
59391;BME280;53405;57.012;40.984;2023-03-15T13:39:31;99880.31;;;9.52;48.28
59391;BME280;53405;57.012;40.984;2023-03-15T13:42:02;99878.75;;;10.12;46.61
59391;BME280;53405;57.012;40.984;2023-03-15T13:44:31;99891.00;;;10.58;46.30
59391;BME280;53405;57.012;40.984;2023-03-15T13:46:59;99886.22;;;10.77;45.64
59391;BME280;53405;57.012;40.984;2023-03-15T13:49:33;99882.09;;;10.89;43.38
59391;BME280;53405;57.012;40.984;2023-03-15T13:52:05;99885.94;;;10.87;45.11
59391;BME280;53405;57.012;40.984;2023-03-15T13:54:39;99862.13;;;10.95;44.40
59391;BME280;53405;57.012;40.984;2023-03-15T13:57:17;99886.06;;;11.30;44.06
59391;BME280;53405;57.012;40.984;2023-03-15T13:59:56;99882.25;;;11.17;42.85
59391;BME280;53405;57.012;40.984;2023-03-15T14:05:04;99894.00;;;10.70;45.69
59391;BME280;53405;57.012;40.984;2023-03-15T14:07:35;99887.44;;;10.36;46.29
59391;BME280;53405;57.012;40.984;2023-03-15T14:10:37;99901.03;;;10.02;46.51
59391;BME280;53405;57.012;40.984;2023-03-15T14:13:30;99896.28;;;9.43;46.88
59391;BME280;53405;57.012;40.984;2023-03-15T14:16:04;99904.63;;;9.23;47.12
59391;BME280;53405;57.012;40.984;2023-03-15T14:18:37;99903.25;;;8.88;47.84
59391;BME280;53405;57.012;40.984;2023-03-15T14:21:17;99884.47;;;8.43;49.43
59391;BME280;53405;57.012;40.984;2023-03-15T14:23:47;99875.75;;;8.67;48.14
59391;BME280;53405;57.012;40.984;2023-03-15T14:26:23;99860.03;;;8.42;48.57
59391;BME280;53405;57.012;40.984;2023-03-15T14:29:06;99881.38;;;7.90;50.59
59391;BME280;53405;57.012;40.984;2023-03-15T14:31:39;99898.75;;;7.83;50.00
59391;BME280;53405;57.012;40.984;2023-03-15T14:34:43;99887.72;;;7.63;50.13
59391;BME280;53405;57.012;40.984;2023-03-15T14:37:42;99887.72;;;7.63;50.38
59391;BME280;53405;57.012;40.984;2023-03-15T14:40:31;99872.31;;;7.59;52.92
59391;BME280;53405;57.012;40.984;2023-03-15T14:43:04;99864.13;;;7.63;51.83
59391;BME280;53405;57.012;40.984;2023-03-15T14:45:33;99878.88;;;7.55;52.14
59391;BME280;53405;57.012;40.984;2023-03-15T14:48:05;99881.44;;;7.39;52.75
59391;BME280;53405;57.012;40.984;2023-03-15T14:50:39;99872.41;;;7.25;52.15
59391;BME280;53405;57.012;40.984;2023-03-15T14:53:11;99842.78;;;7.24;52.87